createdAt,value
2023-05-09T00:04:01.450Z,101629.20
2023-05-09T00:06:29.589Z,101624.55
2023-05-09T00:08:58.372Z,101625.27
2023-05-09T00:11:26.993Z,101621.69
2023-05-09T00:13:55.131Z,101624.55
2023-05-09T00:16:23.874Z,101625.09
2023-05-09T00:18:52.240Z,101626.89
2023-05-09T00:21:20.380Z,101624.56
2023-05-09T00:23:48.616Z,101622.23
2023-05-09T00:26:17.384Z,101615.41
2023-05-09T00:28:46.430Z,101611.83
2023-05-09T00:31:15.025Z,101615.77
2023-05-09T00:33:43.520Z,101611.83
2023-05-09T00:36:11.803Z,101602.34
2023-05-09T00:38:39.960Z,101595.70
2023-05-09T00:41:08.286Z,101593.36
2023-05-09T00:43:36.481Z,101589.95
2023-05-09T00:46:04.880Z,101580.81
2023-05-09T00:48:33.436Z,101582.25
2023-05-09T00:51:01.549Z,101578.48
2023-05-09T00:53:29.787Z,101580.80
2023-05-09T00:56:00.316Z,101580.27
2023-05-09T00:58:29.307Z,101575.42
2023-05-09T01:00:57.462Z,101571.30
2023-05-09T01:03:25.896Z,101572.23
2023-05-09T01:06:07.567Z,101570.77
2023-05-09T01:08:51.505Z,101568.81
2023-05-09T01:11:36.519Z,101567.19
2023-05-09T01:14:25.993Z,101564.48
2023-05-09T01:16:59.610Z,101567.00
2023-05-09T01:19:52.556Z,101568.08
2023-05-09T01:22:27.053Z,101564.32
2023-05-09T01:25:20.434Z,101565.22
2023-05-09T01:27:59.865Z,101563.60
2023-05-09T01:30:30.993Z,101562.54
2023-05-09T01:33:06.642Z,101562.01
2023-05-09T01:35:38.054Z,101561.45
2023-05-09T01:38:12.428Z,101557.15
2023-05-09T01:40:42.826Z,101554.28
2023-05-09T01:43:12.839Z,101552.32
2023-05-09T01:45:43.614Z,101552.85
2023-05-09T01:48:13.548Z,101547.48
2023-05-09T01:50:44.719Z,101547.46
2023-05-09T01:53:14.054Z,101545.67
2023-05-09T01:55:43.691Z,101542.63
2023-05-09T01:58:12.744Z,101532.77
2023-05-09T02:00:42.486Z,101526.70
2023-05-09T02:03:11.327Z,101522.73
2023-05-09T02:05:40.485Z,101523.48
2023-05-09T02:08:09.808Z,101525.98
2023-05-09T02:10:38.338Z,101520.06
2023-05-09T02:13:06.969Z,101524.02
2023-05-09T02:15:35.161Z,101517.75
2023-05-09T02:18:03.428Z,101515.23
2023-05-09T02:20:32.152Z,101510.58
2023-05-09T02:23:00.217Z,101511.30
2023-05-09T02:25:29.151Z,101502.34
2023-05-09T02:27:58.908Z,101495.73
2023-05-09T02:30:31.363Z,101506.48
2023-05-09T02:33:07.712Z,101513.65
2023-05-09T02:35:36.980Z,101514.36
2023-05-09T02:38:05.524Z,101515.45
2023-05-09T02:40:34.826Z,101519.22
2023-05-09T02:43:03.425Z,101517.77
2023-05-09T02:45:31.784Z,101515.97
2023-05-09T02:48:00.662Z,101512.94
2023-05-09T02:50:29.016Z,101508.64
2023-05-09T02:52:57.092Z,101502.71
2023-05-09T02:55:25.981Z,101506.48
2023-05-09T02:58:01.916Z,101505.95
2023-05-09T03:00:38.406Z,101506.84
2023-05-09T03:03:06.713Z,101503.62
2023-05-09T03:05:35.264Z,101505.05
2023-05-09T03:08:03.672Z,101502.73
2023-05-09T03:10:31.738Z,101500.59
2023-05-09T03:12:59.969Z,101496.61
2023-05-09T03:15:28.288Z,101499.14
2023-05-09T03:17:56.373Z,101501.26
2023-05-09T03:20:26.220Z,101494.27
2023-05-09T03:22:54.570Z,101488.55
2023-05-09T03:25:22.807Z,101490.16
2023-05-09T03:27:51.520Z,101489.45
2023-05-09T03:30:19.967Z,101482.98
2023-05-09T03:32:48.439Z,101475.65
2023-05-09T03:35:16.904Z,101469.58
2023-05-09T03:37:45.193Z,101471.36
2023-05-09T03:40:13.448Z,101471.54
2023-05-09T03:42:41.502Z,101471.52
2023-05-09T03:45:11.344Z,101464.55
2023-05-09T03:47:39.618Z,101465.27
2023-05-09T03:50:08.406Z,101460.23
2023-05-09T03:52:36.514Z,101462.42
2023-05-09T03:55:05.039Z,101465.29
2023-05-09T03:57:34.737Z,101463.30
2023-05-09T04:00:04.931Z,101461.89
2023-05-09T04:02:34.489Z,101465.11
2023-05-09T04:05:02.761Z,101466.71
2023-05-09T04:07:31.073Z,101466.73
2023-05-09T04:09:59.842Z,101464.94
2023-05-09T04:12:27.988Z,101458.30
2023-05-09T04:14:56.681Z,101452.04
2023-05-09T04:17:24.839Z,101450.61
2023-05-09T04:19:53.406Z,101453.66
2023-05-09T04:22:21.661Z,101452.77
2023-05-09T04:24:50.094Z,101454.02
2023-05-09T04:27:18.271Z,101454.37
2023-05-09T04:29:46.448Z,101459.22
2023-05-09T04:32:14.593Z,101456.54
2023-05-09T04:34:42.872Z,101457.79
2023-05-09T04:37:11.523Z,101455.10
2023-05-09T04:39:40.058Z,101454.56
2023-05-09T04:42:07.986Z,101456.35
2023-05-09T04:44:36.298Z,101457.79
2023-05-09T04:47:04.431Z,101459.40
2023-05-09T04:49:33.107Z,101467.10
2023-05-09T04:52:01.673Z,101463.52
2023-05-09T04:54:29.793Z,101463.17
2023-05-09T04:57:09.843Z,101462.98
2023-05-09T04:59:46.173Z,101461.91
2023-05-09T05:02:14.259Z,101461.92
2023-05-09T05:04:43.336Z,101462.81
2023-05-09T05:07:11.557Z,101468.19
2023-05-09T05:09:39.752Z,101466.93
2023-05-09T05:12:09.570Z,101467.83
2023-05-09T05:14:38.209Z,101470.33
2023-05-09T05:17:06.346Z,101474.63
2023-05-09T05:19:34.530Z,101477.50
2023-05-09T05:22:02.700Z,101478.56
2023-05-09T05:24:30.976Z,101482.86
2023-05-09T05:26:59.024Z,101481.78
2023-05-09T05:29:27.320Z,101478.74
2023-05-09T05:31:55.672Z,101477.14
2023-05-09T05:34:24.132Z,101485.91
2023-05-09T05:36:52.152Z,101485.19
2023-05-09T05:39:20.569Z,101484.66
2023-05-09T05:41:48.591Z,101484.48
2023-05-09T05:44:16.868Z,101485.02
2023-05-09T05:46:44.926Z,101491.81
2023-05-09T05:49:12.897Z,101489.48
2023-05-09T05:51:41.389Z,101483.04
2023-05-09T05:54:09.487Z,101481.43
2023-05-09T05:56:37.659Z,101485.56
2023-05-09T05:59:07.672Z,101488.24
2023-05-09T06:01:35.808Z,101492.00
2023-05-09T06:04:04.182Z,101491.64
2023-05-09T06:06:32.801Z,101494.68
2023-05-09T06:09:01.183Z,101498.09
2023-05-09T06:11:29.239Z,101499.70
2023-05-09T06:13:57.393Z,101498.45
2023-05-09T06:16:25.558Z,101502.91
2023-05-09T06:18:55.919Z,101500.41
2023-05-09T06:21:24.447Z,101495.21
2023-05-09T06:26:24.576Z,101495.56
2023-05-09T06:28:53.147Z,101491.45
2023-05-09T06:31:22.036Z,101494.84
2023-05-09T06:33:51.777Z,101496.10
2023-05-09T06:36:19.995Z,101498.78
2023-05-09T06:38:48.308Z,101501.99
2023-05-09T06:41:16.627Z,101499.48
2023-05-09T06:43:44.753Z,101503.25
2023-05-09T06:46:12.860Z,101508.81
2023-05-09T06:48:41.144Z,101513.47
2023-05-09T06:51:09.273Z,101518.66
2023-05-09T06:53:38.133Z,101517.39
2023-05-09T06:56:06.413Z,101514.86
2023-05-09T06:58:34.586Z,101511.99
2023-05-09T07:01:03.048Z,101513.75
2023-05-09T07:03:33.079Z,101509.45
2023-05-09T07:06:01.156Z,101507.25
2023-05-09T07:08:29.745Z,101510.45
2023-05-09T07:10:58.362Z,101504.14
2023-05-09T07:13:27.458Z,101506.24
2023-05-09T07:15:55.526Z,101509.79
2023-05-09T07:18:23.985Z,101512.83
2023-05-09T07:20:52.253Z,101513.15
2023-05-09T07:23:20.466Z,101508.42
2023-05-09T07:25:50.209Z,101511.77
2023-05-09T07:28:18.299Z,101513.55
2023-05-09T07:30:46.523Z,101514.04
2023-05-09T07:33:14.619Z,101508.60
2023-05-09T07:35:43.008Z,101510.01
2023-05-09T07:38:11.129Z,101502.95
2023-05-09T07:40:39.352Z,101501.27
2023-05-09T07:43:07.748Z,101499.08
2023-05-09T07:45:35.917Z,101499.22
2023-05-09T07:48:04.905Z,101499.50
2023-05-09T07:50:33.648Z,101497.46
2023-05-09T07:53:01.744Z,101495.06
2023-05-09T07:55:30.005Z,101492.27
2023-05-09T07:57:58.026Z,101487.88
2023-05-09T08:00:26.738Z,101481.84
2023-05-09T08:02:55.498Z,101477.80
2023-05-09T08:05:23.752Z,101470.70
2023-05-09T08:07:51.819Z,101464.65
2023-05-09T08:10:20.005Z,101462.21
2023-05-09T08:12:48.099Z,101464.98
2023-05-09T08:15:16.399Z,101471.91
2023-05-09T08:17:45.361Z,101469.14
2023-05-09T08:20:13.451Z,101465.65
2023-05-09T08:22:41.651Z,101456.95
2023-05-09T08:25:10.062Z,101442.46
2023-05-09T08:27:38.905Z,101444.54
2023-05-09T08:30:08.208Z,101451.86
2023-05-09T08:32:37.081Z,101459.73
2023-05-09T08:35:06.350Z,101464.11
2023-05-09T08:37:35.492Z,101456.27
2023-05-09T08:40:05.396Z,101461.63
2023-05-09T08:42:36.371Z,101458.92
2023-05-09T08:45:10.327Z,101454.77
2023-05-09T08:47:39.199Z,101453.81
2023-05-09T08:50:09.120Z,101467.91
2023-05-09T08:52:38.005Z,101476.02
2023-05-09T08:55:06.336Z,101481.05
2023-05-09T08:57:34.894Z,101486.02
2023-05-09T09:00:05.111Z,101484.32
2023-05-09T09:02:35.563Z,101482.47
2023-05-09T09:05:05.201Z,101474.94
2023-05-09T09:07:36.738Z,101473.69
2023-05-09T09:10:06.243Z,101469.36
2023-05-09T09:12:34.825Z,101467.66
2023-05-09T09:15:08.695Z,101457.87
2023-05-09T09:17:42.439Z,101454.16
2023-05-09T09:20:13.712Z,101449.95
2023-05-09T09:22:44.108Z,101446.06
2023-05-09T09:25:12.256Z,101448.46
2023-05-09T09:27:40.462Z,101449.98
2023-05-09T09:30:11.508Z,101444.73
2023-05-09T09:32:40.285Z,101442.32
2023-05-09T09:35:11.656Z,101444.45
2023-05-09T09:37:40.705Z,101439.52
2023-05-09T09:40:10.190Z,101442.26
2023-05-09T09:42:47.423Z,101436.14
2023-05-09T09:45:16.862Z,101431.63
2023-05-09T09:47:46.992Z,101432.95
2023-05-09T09:50:18.944Z,101440.13
2023-05-09T09:52:50.961Z,101439.88
2023-05-09T09:55:21.234Z,101439.51
2023-05-09T09:57:49.286Z,101440.92
2023-05-09T10:00:30.143Z,101440.52
2023-05-09T10:02:59.827Z,101443.16
2023-05-09T10:05:30.535Z,101436.08
2023-05-09T10:08:04.442Z,101434.30
2023-05-09T10:10:35.058Z,101426.84
2023-05-09T10:13:07.766Z,101417.13
2023-05-09T10:15:45.510Z,101421.84
2023-05-09T10:18:27.440Z,101418.42
2023-05-09T10:20:57.311Z,101419.15
2023-05-09T10:23:25.780Z,101423.80
2023-05-09T10:26:14.342Z,101419.17
2023-05-09T10:28:46.017Z,101420.05
2023-05-09T10:31:28.461Z,101417.16
2023-05-09T10:34:01.367Z,101418.63
2023-05-09T10:36:29.891Z,101415.73
2023-05-09T10:38:58.542Z,101413.86
2023-05-09T10:41:27.541Z,101404.55
2023-05-09T10:43:59.142Z,101409.31
2023-05-09T10:46:28.349Z,101400.73
2023-05-09T10:48:57.538Z,101394.58
2023-05-09T10:51:26.197Z,101392.23
2023-05-09T10:53:54.860Z,101389.34
2023-05-09T10:56:30.216Z,101390.08
2023-05-09T10:59:02.022Z,101389.24
2023-05-09T11:01:38.227Z,101382.97
2023-05-09T11:04:14.664Z,101378.37
2023-05-09T11:06:50.191Z,101382.61
2023-05-09T11:09:38.065Z,101381.45
2023-05-09T11:12:13.005Z,101383.11
2023-05-09T11:14:46.887Z,101378.88
2023-05-09T11:17:20.995Z,101379.50
2023-05-09T11:19:49.182Z,101367.52
2023-05-09T11:22:28.854Z,101365.92
2023-05-09T11:25:14.240Z,101367.77
2023-05-09T11:27:50.354Z,101361.38
2023-05-09T11:30:20.821Z,101354.48
2023-05-09T11:32:54.775Z,101349.08
2023-05-09T11:35:24.342Z,101355.73
2023-05-09T11:38:03.866Z,101367.27
2023-05-09T11:40:36.961Z,101362.27
2023-05-09T11:43:08.002Z,101351.51
2023-05-09T11:45:36.095Z,101339.26
2023-05-09T11:48:09.494Z,101335.05
2023-05-09T11:50:37.716Z,101335.58
2023-05-09T11:53:05.857Z,101334.46
2023-05-09T11:55:38.123Z,101332.83
2023-05-09T11:58:07.516Z,101336.39
2023-05-09T12:00:35.619Z,101341.55
2023-05-09T12:03:06.322Z,101332.70
2023-05-09T12:05:35.695Z,101335.73
2023-05-09T12:08:04.219Z,101335.33
2023-05-09T12:10:38.588Z,101330.13
2023-05-09T12:13:06.887Z,101324.62
2023-05-09T12:15:39.053Z,101318.46
2023-05-09T12:18:08.537Z,101313.63
2023-05-09T12:20:48.656Z,101317.70
2023-05-09T12:23:17.224Z,101315.59
2023-05-09T12:26:03.237Z,101313.91
2023-05-09T12:28:33.171Z,101314.50
2023-05-09T12:31:01.904Z,101308.20
2023-05-09T12:33:31.617Z,101298.75
2023-05-09T12:36:02.661Z,101303.40
2023-05-09T12:38:30.914Z,101302.20
2023-05-09T12:41:30.963Z,101299.89
2023-05-09T12:44:05.409Z,101292.77
2023-05-09T12:46:35.646Z,101292.19
2023-05-09T12:49:23.502Z,101294.02
2023-05-09T12:51:52.170Z,101293.28
2023-05-09T12:54:26.466Z,101290.38
2023-05-09T12:56:56.271Z,101295.58
2023-05-09T12:59:28.751Z,101289.41
2023-05-09T13:01:59.158Z,101283.77
2023-05-09T13:04:28.890Z,101276.73
2023-05-09T13:06:58.773Z,101280.58
2023-05-09T13:09:27.923Z,101281.56
2023-05-09T13:11:56.154Z,101272.10
2023-05-09T13:14:25.676Z,101271.59
2023-05-09T13:16:54.742Z,101276.32
2023-05-09T13:19:24.106Z,101272.15
2023-05-09T13:21:52.708Z,101266.48
2023-05-09T13:24:21.071Z,101271.27
2023-05-09T13:26:49.854Z,101262.00
2023-05-09T13:29:18.000Z,101260.77
2023-05-09T13:31:46.648Z,101269.20
2023-05-09T13:34:14.661Z,101266.09
2023-05-09T13:36:42.885Z,101262.88
2023-05-09T13:39:11.082Z,101262.08
2023-05-09T13:41:39.276Z,101265.05
2023-05-09T13:44:08.560Z,101256.20
2023-05-09T13:46:37.348Z,101255.88
2023-05-09T13:49:05.991Z,101263.30
2023-05-09T13:51:34.728Z,101259.66
2023-05-09T13:54:04.149Z,101248.98
2023-05-09T13:56:32.296Z,101243.52
2023-05-09T13:59:00.483Z,101242.48
2023-05-09T14:01:29.258Z,101233.24
2023-05-09T14:03:57.446Z,101224.50
2023-05-09T14:06:25.696Z,101207.22
2023-05-09T14:08:53.706Z,101214.86
2023-05-09T14:11:21.810Z,101201.96
2023-05-09T14:13:50.084Z,101206.55
2023-05-09T14:16:18.937Z,101198.54
2023-05-09T14:18:47.664Z,101202.21
2023-05-09T14:21:16.305Z,101197.27
2023-05-09T14:23:45.033Z,101179.79
2023-05-09T14:26:13.215Z,101182.54
2023-05-09T14:28:41.480Z,101182.16
2023-05-09T14:31:10.859Z,101172.05
2023-05-09T14:33:39.444Z,101168.15
2023-05-09T14:36:07.669Z,101177.77
2023-05-09T14:38:35.796Z,101175.32
2023-05-09T14:41:04.456Z,101179.55
2023-05-09T14:43:32.784Z,101177.64
2023-05-09T14:46:00.820Z,101169.06
2023-05-09T14:48:29.673Z,101163.08
2023-05-09T14:50:58.714Z,101163.39
2023-05-09T14:53:27.693Z,101166.20
2023-05-09T14:55:56.419Z,101167.27
2023-05-09T14:58:24.668Z,101164.30
2023-05-09T15:00:53.563Z,101155.21
2023-05-09T15:03:21.982Z,101154.23
2023-05-09T15:05:50.744Z,101157.23
2023-05-09T15:08:19.246Z,101153.77
2023-05-09T15:10:47.585Z,101144.40
2023-05-09T15:13:16.144Z,101144.55
2023-05-09T15:15:44.367Z,101142.45
2023-05-09T15:18:12.976Z,101144.62
2023-05-09T15:20:41.670Z,101146.28
2023-05-09T15:23:12.181Z,101150.35
2023-05-09T15:25:44.029Z,101149.22
2023-05-09T15:28:13.034Z,101142.30
2023-05-09T15:30:41.815Z,101145.06
2023-05-09T15:33:10.175Z,101149.16
2023-05-09T15:35:38.956Z,101140.52
2023-05-09T15:38:07.607Z,101137.80
2023-05-09T15:40:35.694Z,101139.38
2023-05-09T15:43:05.354Z,101142.96
2023-05-09T15:45:34.704Z,101146.15
2023-05-09T15:48:03.236Z,101156.30
2023-05-09T15:50:33.928Z,101147.52
2023-05-09T15:53:02.154Z,101138.29
2023-05-09T15:55:33.551Z,101133.02
2023-05-09T15:58:01.774Z,101125.06
2023-05-09T16:00:30.550Z,101122.33
2023-05-09T16:02:59.713Z,101128.98
2023-05-09T16:05:28.151Z,101127.75
2023-05-09T16:07:56.237Z,101116.80
2023-05-09T16:10:24.972Z,101113.53
2023-05-09T16:12:53.181Z,101120.87
2023-05-09T16:15:21.750Z,101128.52
2023-05-09T16:17:49.890Z,101118.20
2023-05-09T16:20:18.065Z,101116.72
2023-05-09T16:22:46.466Z,101119.70
2023-05-09T16:25:15.062Z,101125.11
2023-05-09T16:27:43.658Z,101118.43
2023-05-09T16:30:13.437Z,101115.23
2023-05-09T16:32:42.100Z,101119.79
2023-05-09T16:35:11.012Z,101119.69
2023-05-09T16:37:39.591Z,101115.80
2023-05-09T16:40:08.739Z,101111.25
2023-05-09T16:42:36.988Z,101108.00
2023-05-09T16:45:07.336Z,101104.74
2023-05-09T16:47:35.648Z,101099.88
2023-05-09T16:50:04.077Z,101096.93
2023-05-09T16:52:32.172Z,101091.60
2023-05-09T16:55:00.238Z,101089.26
2023-05-09T16:57:28.596Z,101086.34
2023-05-09T16:59:56.649Z,101089.18
2023-05-09T17:02:24.857Z,101086.70
2023-05-09T17:04:54.135Z,101081.07
2023-05-09T17:07:22.424Z,101079.65
2023-05-09T17:09:50.599Z,101080.05
2023-05-09T17:12:19.237Z,101080.39
2023-05-09T17:14:48.398Z,101080.82
2023-05-09T17:17:16.555Z,101082.44
2023-05-09T17:19:44.761Z,101078.23
2023-05-09T17:22:12.935Z,101070.31
2023-05-09T17:24:41.218Z,101072.59
2023-05-09T17:27:09.474Z,101069.11
2023-05-09T17:29:37.555Z,101058.38
2023-05-09T17:32:05.883Z,101061.33
2023-05-09T17:34:34.328Z,101061.05
2023-05-09T17:37:02.643Z,101058.25
2023-05-09T17:39:31.888Z,101061.02
2023-05-09T17:41:59.939Z,101071.89
2023-05-09T17:44:28.656Z,101080.47
2023-05-09T17:47:00.593Z,101073.80
2023-05-09T17:49:29.294Z,101058.69
2023-05-09T17:51:57.460Z,101061.13
2023-05-09T17:54:26.597Z,101062.05
2023-05-09T17:56:55.459Z,101059.27
2023-05-09T17:59:23.926Z,101056.14
2023-05-09T18:01:52.257Z,101046.98
2023-05-09T18:04:21.229Z,101043.57
2023-05-09T18:06:49.911Z,101043.50
2023-05-09T18:09:18.026Z,101050.29
2023-05-09T18:11:46.159Z,101050.33
2023-05-09T18:14:14.625Z,101046.38
2023-05-09T18:16:43.770Z,101047.86
2023-05-09T18:19:11.904Z,101043.97
2023-05-09T18:21:40.060Z,101047.92
2023-05-09T18:24:08.355Z,101052.05
2023-05-09T18:26:36.569Z,101045.39
2023-05-09T18:29:04.727Z,101048.48
2023-05-09T18:31:33.373Z,101055.44
2023-05-09T18:34:01.601Z,101058.80
2023-05-09T18:36:29.635Z,101058.03
2023-05-09T18:38:58.275Z,101063.10
2023-05-09T18:41:29.362Z,101062.79
2023-05-09T18:43:58.147Z,101066.52
2023-05-09T18:46:26.326Z,101064.19
2023-05-09T18:48:54.513Z,101064.95
2023-05-09T18:51:23.059Z,101070.67
2023-05-09T18:53:51.520Z,101069.58
2023-05-09T18:56:19.861Z,101066.51
2023-05-09T18:58:49.208Z,101069.52
2023-05-09T19:01:17.889Z,101066.24
2023-05-09T19:03:46.160Z,101058.01
2023-05-09T19:06:15.469Z,101053.02
2023-05-09T19:08:43.796Z,101055.02
2023-05-09T19:11:11.812Z,101062.10
2023-05-09T19:13:40.536Z,101076.21
2023-05-09T19:16:09.080Z,101085.23
2023-05-09T19:18:37.283Z,101086.48
2023-05-09T19:21:05.621Z,101079.65
2023-05-09T19:23:34.379Z,101082.35
2023-05-09T19:26:02.799Z,101097.11
2023-05-09T19:28:31.018Z,101109.44
2023-05-09T19:30:59.104Z,101119.02
2023-05-09T19:33:27.264Z,101120.98
2023-05-09T19:35:55.781Z,101115.59
2023-05-09T19:38:24.424Z,101108.43
2023-05-09T19:40:52.811Z,101119.95
2023-05-09T19:43:20.975Z,101114.02
2023-05-09T19:45:49.004Z,101112.05
2023-05-09T19:48:17.820Z,101108.81
2023-05-09T19:50:46.260Z,101102.73
2023-05-09T19:53:14.332Z,101095.56
2023-05-09T19:55:43.010Z,101101.33
2023-05-09T19:58:11.647Z,101101.54
2023-05-09T20:00:40.608Z,101105.55
2023-05-09T20:03:09.418Z,101112.56
2023-05-09T20:05:38.925Z,101124.11
2023-05-09T20:08:07.332Z,101128.52
2023-05-09T20:10:35.486Z,101121.89
2023-05-09T20:13:03.606Z,101125.11
2023-05-09T20:15:32.230Z,101130.15
2023-05-09T20:18:00.312Z,101147.77
2023-05-09T20:20:30.164Z,101160.70
2023-05-09T20:22:58.301Z,101152.21
2023-05-09T20:25:26.424Z,101148.39
2023-05-09T20:27:54.756Z,101134.54
2023-05-09T20:30:23.031Z,101138.86
2023-05-09T20:32:51.232Z,101139.27
2023-05-09T20:35:19.431Z,101150.80
2023-05-09T20:37:47.673Z,101157.06
2023-05-09T20:40:15.978Z,101165.50
2023-05-09T20:42:44.459Z,101167.91
2023-05-09T20:45:12.979Z,101168.15
2023-05-09T20:47:41.082Z,101164.93
2023-05-09T20:50:10.784Z,101174.23
2023-05-09T20:52:38.879Z,101185.48
2023-05-09T20:55:07.221Z,101190.73
2023-05-09T20:57:36.037Z,101194.70
2023-05-09T21:00:04.480Z,101200.48
2023-05-09T21:02:32.630Z,101207.85
2023-05-09T21:05:03.204Z,101212.50
2023-05-09T21:07:31.287Z,101222.77
2023-05-09T21:09:59.841Z,101227.46
2023-05-09T21:12:28.378Z,101235.22
2023-05-09T21:14:56.706Z,101240.08
2023-05-09T21:17:24.787Z,101245.48
2023-05-09T21:19:52.991Z,101243.17
2023-05-09T21:22:21.253Z,101240.90
2023-05-09T21:24:49.345Z,101238.45
2023-05-09T21:27:17.554Z,101241.77
2023-05-09T21:29:45.657Z,101248.83
2023-05-09T21:32:13.974Z,101248.50
2023-05-09T21:34:42.785Z,101247.27
2023-05-09T21:37:10.890Z,101247.64
2023-05-09T21:39:39.432Z,101254.88
2023-05-09T21:42:08.057Z,101254.91
2023-05-09T21:44:36.251Z,101258.70
2023-05-09T21:47:05.040Z,101256.16
2023-05-09T21:49:33.607Z,101254.18
2023-05-09T21:52:01.737Z,101254.54
2023-05-09T21:54:29.977Z,101252.74
2023-05-09T21:56:58.183Z,101256.52
2023-05-09T21:59:27.170Z,101249.17
2023-05-09T22:01:55.212Z,101251.70
2023-05-09T22:04:23.847Z,101257.63
2023-05-09T22:06:51.900Z,101256.20
2023-05-09T22:09:19.975Z,101257.83
2023-05-09T22:11:48.150Z,101259.83
2023-05-09T22:14:16.240Z,101259.98
2023-05-09T22:16:44.350Z,101258.55
2023-05-09T22:19:12.825Z,101261.06
2023-05-09T22:21:40.948Z,101264.31
2023-05-09T22:24:09.054Z,101263.43
2023-05-09T22:26:37.433Z,101268.25
2023-05-09T22:29:05.494Z,101270.03
2023-05-09T22:31:33.523Z,101268.60
2023-05-09T22:34:02.135Z,101266.27
2023-05-09T22:36:30.208Z,101269.50
2023-05-09T22:38:58.318Z,101277.74
2023-05-09T22:41:26.399Z,101283.14
2023-05-09T22:43:54.921Z,101279.02
2023-05-09T22:46:23.081Z,101279.72
2023-05-09T22:48:51.659Z,101275.02
2023-05-09T22:51:19.821Z,101277.51
2023-05-09T22:53:48.014Z,101278.73
2023-05-09T22:56:16.296Z,101278.16
2023-05-09T22:58:44.453Z,101274.89
2023-05-09T23:01:12.477Z,101275.41
2023-05-09T23:03:40.658Z,101284.53
2023-05-09T23:06:08.753Z,101282.17
2023-05-09T23:08:37.040Z,101279.27
2023-05-09T23:11:05.269Z,101274.60
2023-05-09T23:13:33.298Z,101270.10
2023-05-09T23:16:01.402Z,101272.05
2023-05-09T23:18:30.354Z,101270.23
2023-05-09T23:20:58.488Z,101269.52
2023-05-09T23:23:27.761Z,101272.56
2023-05-09T23:25:56.018Z,101272.20
2023-05-09T23:28:24.518Z,101268.77
2023-05-09T23:30:55.765Z,101270.58
2023-05-09T23:33:24.041Z,101273.44
2023-05-09T23:35:52.335Z,101275.59
2023-05-09T23:38:20.387Z,101275.62
2023-05-09T23:40:48.457Z,101272.59
2023-05-09T23:43:16.659Z,101267.92
2023-05-09T23:45:44.857Z,101272.81
2023-05-09T23:48:13.146Z,101278.21
2023-05-09T23:50:41.691Z,101282.52
2023-05-09T23:53:09.836Z,101279.30
2023-05-09T23:55:38.082Z,101282.16
2023-05-09T23:58:06.191Z,101286.48
